createdAt,value
2019-03-05T00:01:52.659Z,65.43
2019-03-05T00:04:22.097Z,65.68
2019-03-05T00:06:51.569Z,65.68
2019-03-05T00:09:21.387Z,65.63
2019-03-05T00:11:50.849Z,66.05
2019-03-05T00:14:22.250Z,65.80
2019-03-05T00:16:51.722Z,65.49
2019-03-05T00:19:21.152Z,65.59
2019-03-05T00:21:50.771Z,65.54
2019-03-05T00:24:39.061Z,65.74
2019-03-05T00:27:08.512Z,65.52
2019-03-05T00:29:49.967Z,65.74
2019-03-05T00:32:19.409Z,66.10
2019-03-05T00:34:55.253Z,65.95
2019-03-05T00:37:31.044Z,66.29
2019-03-05T00:40:12.283Z,65.83
2019-03-05T00:43:09.055Z,66.47
2019-03-05T00:45:58.209Z,66.53
2019-03-05T00:48:30.851Z,66.15
2019-03-05T00:51:12.027Z,66.43
2019-03-05T00:53:53.578Z,66.27
2019-03-05T00:56:43.221Z,65.81
2019-03-05T00:59:33.139Z,66.07
2019-03-05T01:02:17.798Z,66.69
2019-03-05T01:05:00.888Z,66.86
2019-03-05T01:07:31.699Z,67.21
2019-03-05T01:10:01.188Z,67.19
2019-03-05T01:12:30.799Z,67.07
2019-03-05T01:15:00.409Z,67.41
2019-03-05T01:17:29.910Z,66.87
2019-03-05T01:19:59.338Z,67.14
2019-03-05T01:22:28.792Z,66.63
2019-03-05T01:24:58.391Z,66.87
2019-03-05T01:27:28.115Z,66.88
2019-03-05T01:29:57.576Z,66.80
2019-03-05T01:32:34.211Z,66.96
2019-03-05T01:35:06.682Z,66.94
2019-03-05T01:37:36.124Z,66.63
2019-03-05T01:40:09.048Z,67.08
2019-03-05T01:42:38.511Z,66.88
2019-03-05T01:45:10.783Z,66.83
2019-03-05T01:47:40.639Z,66.50
2019-03-05T01:50:11.119Z,66.16
2019-03-05T01:52:40.592Z,66.76
2019-03-05T01:55:10.284Z,66.59
2019-03-05T01:57:39.723Z,66.18
2019-03-05T02:00:11.855Z,66.28
2019-03-05T02:02:41.471Z,66.41
2019-03-05T02:05:11.483Z,66.50
2019-03-05T02:07:41.199Z,65.86
2019-03-05T02:10:20.471Z,65.60
2019-03-05T02:12:50.384Z,65.29
2019-03-05T02:15:20.012Z,65.01
2019-03-05T02:17:49.954Z,64.56
2019-03-05T02:20:24.554Z,64.90
2019-03-05T02:23:05.659Z,64.35
2019-03-05T02:25:38.590Z,64.36
2019-03-05T02:28:43.811Z,64.50
2019-03-05T02:31:16.482Z,64.21
2019-03-05T02:33:55.802Z,64.04
2019-03-05T02:36:48.427Z,64.07
2019-03-05T02:39:29.992Z,63.66
2019-03-05T02:42:14.836Z,63.64
2019-03-05T02:45:10.443Z,64.11
2019-03-05T02:48:03.389Z,64.02
2019-03-05T02:51:00.153Z,63.90
2019-03-05T02:53:35.485Z,64.31
2019-03-05T02:56:24.722Z,64.04
2019-03-05T02:58:53.195Z,63.92
2019-03-05T03:01:24.313Z,64.10
2019-03-05T03:03:55.385Z,64.13
2019-03-05T03:06:26.608Z,63.92
2019-03-05T03:08:59.232Z,63.80
2019-03-05T03:11:28.669Z,63.55
2019-03-05T03:13:58.114Z,63.15
2019-03-05T03:16:27.736Z,63.03
2019-03-05T03:18:57.167Z,63.08
2019-03-05T03:21:26.639Z,63.03
2019-03-05T03:23:56.118Z,63.09
2019-03-05T03:26:25.569Z,63.07
2019-03-05T03:28:55.025Z,63.00
2019-03-05T03:31:24.482Z,62.97
2019-03-05T03:33:53.931Z,63.15
2019-03-05T03:36:23.387Z,63.55
2019-03-05T03:38:52.822Z,63.78
2019-03-05T03:41:22.301Z,64.09
2019-03-05T03:43:51.727Z,64.35
2019-03-05T03:46:21.182Z,64.58
2019-03-05T03:48:50.616Z,64.88
2019-03-05T03:51:20.067Z,65.29
2019-03-05T03:53:49.544Z,65.34
2019-03-05T03:56:19.034Z,65.21
2019-03-05T03:58:48.451Z,65.03
2019-03-05T04:01:17.901Z,64.80
2019-03-05T04:03:47.359Z,64.50
2019-03-05T04:06:16.807Z,64.67
2019-03-05T04:08:46.235Z,64.31
2019-03-05T04:11:15.697Z,64.14
2019-03-05T04:13:45.138Z,64.07
2019-03-05T04:16:14.882Z,63.62
2019-03-05T04:18:44.323Z,63.89
2019-03-05T04:21:14.102Z,63.76
2019-03-05T04:23:43.548Z,63.93
2019-03-05T04:26:13.006Z,63.67
2019-03-05T04:28:42.452Z,63.72
2019-03-05T04:31:11.905Z,63.28
2019-03-05T04:33:41.344Z,62.60
2019-03-05T04:36:10.778Z,62.47
2019-03-05T04:38:40.506Z,62.23
2019-03-05T04:41:09.953Z,62.37
2019-03-05T04:43:39.442Z,62.65
2019-03-05T04:46:10.523Z,62.90
2019-03-05T04:48:40.429Z,62.53
2019-03-05T04:51:13.977Z,62.09
2019-03-05T04:53:43.429Z,62.01
2019-03-05T04:56:12.860Z,61.50
2019-03-05T04:58:42.322Z,62.07
2019-03-05T05:01:11.765Z,62.29
2019-03-05T05:03:41.222Z,62.04
2019-03-05T05:06:10.659Z,62.24
2019-03-05T05:08:40.102Z,62.38
2019-03-05T05:11:09.691Z,62.33
2019-03-05T05:13:39.165Z,62.59
2019-03-05T05:16:08.600Z,62.66
2019-03-05T05:18:38.071Z,62.84
2019-03-05T05:21:07.500Z,62.80
2019-03-05T05:23:36.962Z,63.02
2019-03-05T05:26:06.388Z,62.96
2019-03-05T05:28:35.845Z,63.14
2019-03-05T05:31:05.471Z,62.63
2019-03-05T05:33:34.929Z,62.67
2019-03-05T05:36:04.368Z,62.50
2019-03-05T05:38:33.811Z,61.78
2019-03-05T05:41:03.258Z,61.88
2019-03-05T05:43:33.179Z,61.12
2019-03-05T05:46:02.605Z,60.98
2019-03-05T05:48:32.078Z,61.08
2019-03-05T05:51:01.592Z,60.74
2019-03-05T05:53:31.043Z,60.89
2019-03-05T05:56:00.503Z,60.77
2019-03-05T05:58:29.949Z,60.79
2019-03-05T06:01:01.036Z,60.85
2019-03-05T06:03:30.766Z,60.58
2019-03-05T06:06:00.251Z,60.28
2019-03-05T06:08:29.664Z,59.80
2019-03-05T06:10:59.118Z,60.56
2019-03-05T06:13:28.552Z,59.88
2019-03-05T06:15:57.997Z,60.24
2019-03-05T06:18:27.431Z,60.29
2019-03-05T06:20:56.907Z,60.33
2019-03-05T06:23:26.353Z,60.58
2019-03-05T06:25:55.797Z,60.31
2019-03-05T06:28:25.230Z,60.46
2019-03-05T06:30:54.830Z,60.64
2019-03-05T06:33:24.311Z,60.39
2019-03-05T06:35:53.766Z,60.23
2019-03-05T06:38:23.210Z,60.28
2019-03-05T06:40:52.665Z,60.85
2019-03-05T06:43:22.101Z,60.83
2019-03-05T06:45:51.556Z,60.49
2019-03-05T06:48:21.113Z,60.68
2019-03-05T06:50:50.564Z,60.41
2019-03-05T06:53:20.021Z,60.05
2019-03-05T06:55:49.454Z,60.03
2019-03-05T06:58:18.931Z,59.43
2019-03-05T07:00:48.598Z,59.73
2019-03-05T07:03:18.141Z,58.71
2019-03-05T07:06:24.373Z,57.90
2019-03-05T07:09:00.176Z,55.15
2019-03-05T07:11:32.780Z,54.74
2019-03-05T07:14:14.571Z,54.00
2019-03-05T07:17:08.235Z,54.41
2019-03-05T07:19:43.517Z,55.31
2019-03-05T07:22:28.618Z,56.19
2019-03-05T07:24:58.071Z,56.03
2019-03-05T07:27:28.758Z,56.46
2019-03-05T07:30:01.696Z,56.04
2019-03-05T07:32:31.137Z,56.41
2019-03-05T07:35:00.597Z,57.65
2019-03-05T07:37:30.046Z,56.56
2019-03-05T07:39:59.493Z,53.75
2019-03-05T07:42:28.938Z,52.96
2019-03-05T07:44:58.389Z,54.88
2019-03-05T07:47:28.223Z,55.98
2019-03-05T07:49:57.694Z,53.08
2019-03-05T07:52:27.419Z,50.46
2019-03-05T07:54:57.225Z,48.08
2019-03-05T07:57:26.679Z,47.16
2019-03-05T07:59:56.430Z,45.73
2019-03-05T08:02:25.877Z,46.92
2019-03-05T08:04:55.320Z,45.21
2019-03-05T08:07:25.143Z,43.65
2019-03-05T08:09:56.431Z,42.61
2019-03-05T08:12:31.646Z,44.53
2019-03-05T08:15:22.338Z,47.42
2019-03-05T08:17:51.885Z,49.77
2019-03-05T08:20:21.332Z,50.37
2019-03-05T08:22:50.780Z,50.88
2019-03-05T08:25:20.249Z,52.15
2019-03-05T08:27:50.775Z,53.97
2019-03-05T08:30:20.286Z,54.38
2019-03-05T08:32:49.732Z,56.02
2019-03-05T08:35:19.220Z,54.08
2019-03-05T08:37:48.659Z,53.39
2019-03-05T08:40:18.112Z,49.76
2019-03-05T08:42:47.566Z,49.04
2019-03-05T08:45:28.447Z,48.12
2019-03-05T08:47:48.194Z,47.49
2019-03-05T08:50:17.648Z,46.69
2019-03-05T08:52:47.108Z,46.03
2019-03-05T08:55:16.576Z,46.25
2019-03-05T08:57:46.143Z,45.44
2019-03-05T09:00:20.712Z,48.23
2019-03-05T09:02:50.167Z,49.01
2019-03-05T09:05:20.187Z,50.27
2019-03-05T09:07:49.636Z,50.37
2019-03-05T09:10:24.362Z,48.61
2019-03-05T09:12:54.010Z,48.31
2019-03-05T09:15:23.613Z,45.45
2019-03-05T09:17:53.096Z,43.69
2019-03-05T09:20:22.913Z,42.88
2019-03-05T09:22:52.375Z,42.16
2019-03-05T09:25:21.820Z,43.82
2019-03-05T09:27:51.309Z,42.62
2019-03-05T09:30:22.652Z,44.51
2019-03-05T09:32:52.404Z,46.14
2019-03-05T09:35:21.862Z,46.40
2019-03-05T09:37:51.597Z,46.43
2019-03-05T09:40:26.430Z,47.88
2019-03-05T09:42:56.368Z,49.26
2019-03-05T09:45:28.084Z,50.01
2019-03-05T09:47:57.452Z,50.93
2019-03-05T09:50:27.059Z,51.04
2019-03-05T09:52:56.522Z,51.69
2019-03-05T09:55:26.697Z,52.63
2019-03-05T09:58:07.655Z,53.49
2019-03-05T10:00:28.551Z,55.15
2019-03-05T10:02:58.115Z,55.73
2019-03-05T10:05:27.531Z,56.62
2019-03-05T10:07:57.355Z,56.72
2019-03-05T10:10:28.142Z,55.06
2019-03-05T10:12:59.070Z,55.25
2019-03-05T10:15:29.418Z,55.04
2019-03-05T10:17:58.921Z,54.96
2019-03-05T10:20:30.442Z,54.67
2019-03-05T10:23:00.059Z,54.18
2019-03-05T10:25:29.664Z,53.81
2019-03-05T10:27:59.121Z,53.55
2019-03-05T10:30:56.408Z,52.96
2019-03-05T10:33:25.864Z,52.79
2019-03-05T10:35:55.303Z,52.60
2019-03-05T10:38:24.922Z,52.28
2019-03-05T10:40:57.143Z,51.59
2019-03-05T10:43:26.751Z,51.76
2019-03-05T10:45:56.208Z,51.02
2019-03-05T10:48:26.061Z,51.00
2019-03-05T10:50:55.805Z,50.60
2019-03-05T10:53:25.258Z,50.28
2019-03-05T10:55:54.707Z,49.58
2019-03-05T10:58:33.169Z,49.72
2019-03-05T11:00:58.306Z,50.30
2019-03-05T11:03:29.715Z,50.31
2019-03-05T11:05:59.549Z,52.29
2019-03-05T11:08:28.991Z,53.13
2019-03-05T11:10:59.818Z,55.10
2019-03-05T11:13:29.645Z,56.68
2019-03-05T11:16:04.020Z,57.56
2019-03-05T11:18:33.698Z,58.50
2019-03-05T11:21:03.134Z,57.55
2019-03-05T11:23:32.584Z,57.11
2019-03-05T11:26:02.035Z,57.43
2019-03-05T11:28:31.486Z,57.40
2019-03-05T11:31:01.087Z,57.32
2019-03-05T11:33:30.551Z,59.63
2019-03-05T11:36:00.003Z,61.01
2019-03-05T11:38:29.451Z,63.79
2019-03-05T11:40:59.344Z,64.14
2019-03-05T11:43:28.794Z,63.24
2019-03-05T11:45:58.399Z,60.84
2019-03-05T11:48:27.860Z,58.78
2019-03-05T11:50:57.592Z,58.86
2019-03-05T11:53:27.047Z,58.31
2019-03-05T11:55:56.804Z,58.94
2019-03-05T11:58:26.262Z,58.94
2019-03-05T12:01:00.275Z,58.03
2019-03-05T12:03:29.693Z,56.72
2019-03-05T12:05:59.434Z,56.98
2019-03-05T12:08:28.877Z,56.51
2019-03-05T12:10:58.333Z,56.17
2019-03-05T12:13:28.146Z,56.00
2019-03-05T12:15:57.829Z,57.15
2019-03-05T12:18:27.269Z,63.53
2019-03-05T12:20:57.450Z,66.68
2019-03-05T12:23:26.960Z,70.66
2019-03-05T12:25:56.406Z,75.62
2019-03-05T12:28:25.892Z,78.91
2019-03-05T12:30:55.340Z,83.05
2019-03-05T12:33:24.819Z,84.69
2019-03-05T12:35:54.522Z,85.65
2019-03-05T12:38:23.953Z,85.93
2019-03-05T12:40:53.414Z,85.80
2019-03-05T12:43:22.894Z,85.32
2019-03-05T12:45:52.363Z,85.35
2019-03-05T12:48:21.811Z,86.09
2019-03-05T12:50:51.488Z,85.68
2019-03-05T12:53:20.918Z,85.69
2019-03-05T12:55:50.542Z,85.02
2019-03-05T12:58:20.286Z,85.04
2019-03-05T13:00:49.748Z,84.62
2019-03-05T13:03:19.181Z,84.61
2019-03-05T13:05:48.623Z,83.93
2019-03-05T13:08:18.078Z,83.91
2019-03-05T13:10:47.523Z,83.70
2019-03-05T13:13:16.974Z,84.32
2019-03-05T13:15:46.724Z,84.42
2019-03-05T13:18:16.160Z,83.31
2019-03-05T13:20:45.601Z,83.56
2019-03-05T13:23:15.037Z,83.80
2019-03-05T13:25:44.495Z,81.69
2019-03-05T13:28:13.954Z,81.37
2019-03-05T13:30:43.497Z,80.59
2019-03-05T13:33:12.936Z,80.15
2019-03-05T13:35:42.390Z,81.37
2019-03-05T13:38:12.460Z,79.85
2019-03-05T13:40:41.954Z,80.89
2019-03-05T13:43:11.397Z,79.36
2019-03-05T13:45:43.819Z,79.94
2019-03-05T13:48:19.801Z,79.00
2019-03-05T13:51:06.683Z,78.66
2019-03-05T13:54:00.865Z,77.07
2019-03-05T13:57:00.922Z,79.57
2019-03-05T13:59:44.693Z,78.12
2019-03-05T14:02:16.853Z,76.89
2019-03-05T14:05:12.167Z,76.96
2019-03-05T14:08:01.451Z,76.76
2019-03-05T14:10:30.919Z,76.37
2019-03-05T14:13:00.382Z,75.38
2019-03-05T14:15:29.904Z,75.85
2019-03-05T14:17:59.329Z,76.39
2019-03-05T14:20:31.910Z,77.23
2019-03-05T14:23:00.201Z,76.55
2019-03-05T14:25:29.653Z,76.96
2019-03-05T14:27:59.101Z,78.12
2019-03-05T14:30:28.569Z,76.74
2019-03-05T14:33:00.779Z,78.80
2019-03-05T14:35:29.573Z,77.35
2019-03-05T14:37:59.434Z,77.47
2019-03-05T14:40:30.051Z,77.46
2019-03-05T14:42:59.693Z,76.95
2019-03-05T14:45:31.355Z,76.30
2019-03-05T14:48:01.075Z,77.27
2019-03-05T14:50:30.630Z,76.61
2019-03-05T14:53:00.426Z,73.21
2019-03-05T14:55:29.912Z,72.83
2019-03-05T14:57:59.355Z,73.88
2019-03-05T15:00:28.763Z,71.62
2019-03-05T15:02:58.330Z,68.84
2019-03-05T15:05:27.763Z,68.48
2019-03-05T15:07:57.391Z,66.16
2019-03-05T15:10:27.144Z,67.02
2019-03-05T15:12:56.615Z,63.86
2019-03-05T15:15:31.003Z,64.68
2019-03-05T15:18:00.484Z,61.13
2019-03-05T15:20:29.953Z,62.52
2019-03-05T15:22:59.393Z,62.55
2019-03-05T15:25:28.876Z,63.66
2019-03-05T15:27:58.330Z,65.68
2019-03-05T15:30:29.277Z,66.90
2019-03-05T15:32:58.859Z,66.96
2019-03-05T15:35:28.583Z,68.29
2019-03-05T15:37:58.057Z,68.50
2019-03-05T15:40:27.607Z,68.26
2019-03-05T15:42:57.078Z,65.86
2019-03-05T15:45:26.787Z,66.52
2019-03-05T15:47:56.237Z,65.74
2019-03-05T15:50:29.839Z,64.34
2019-03-05T15:52:59.744Z,64.09
2019-03-05T15:55:29.242Z,63.48
2019-03-05T15:57:58.695Z,64.82
2019-03-05T16:00:32.293Z,65.28
2019-03-05T16:03:02.072Z,66.10
2019-03-05T16:05:31.785Z,67.62
2019-03-05T16:08:01.567Z,68.25
2019-03-05T16:10:31.190Z,68.80
2019-03-05T16:13:00.663Z,69.08
2019-03-05T16:15:30.110Z,69.12
2019-03-05T16:18:04.606Z,69.87
2019-03-05T16:20:31.346Z,70.31
2019-03-05T16:23:00.784Z,70.81
2019-03-05T16:25:30.230Z,71.08
2019-03-05T16:28:02.244Z,71.57
2019-03-05T16:30:44.878Z,71.58
2019-03-05T16:33:28.237Z,72.64
2019-03-05T16:36:15.886Z,72.56
2019-03-05T16:38:46.980Z,72.54
2019-03-05T16:41:30.170Z,72.47
2019-03-05T16:44:10.530Z,72.99
2019-03-05T16:46:58.263Z,73.32
2019-03-05T16:49:44.351Z,73.06
2019-03-05T16:52:24.169Z,73.40
2019-03-05T16:55:07.482Z,73.99
2019-03-05T16:57:41.223Z,73.74
2019-03-05T17:00:19.571Z,74.06
2019-03-05T17:02:59.659Z,74.07
2019-03-05T17:05:39.652Z,74.54
2019-03-05T17:08:10.772Z,74.55
2019-03-05T17:10:47.852Z,75.00
2019-03-05T17:13:17.571Z,74.24
2019-03-05T17:15:47.040Z,75.21
2019-03-05T17:18:16.510Z,76.43
2019-03-05T17:20:45.961Z,77.50
2019-03-05T17:23:15.486Z,78.22
2019-03-05T17:25:44.926Z,78.67
2019-03-05T17:28:14.421Z,78.40
2019-03-05T17:30:43.972Z,78.69
2019-03-05T17:33:13.599Z,79.03
2019-03-05T17:35:43.041Z,79.85
2019-03-05T17:38:12.535Z,80.54
2019-03-05T17:40:41.993Z,80.99
2019-03-05T17:43:11.463Z,81.06
2019-03-05T17:45:40.983Z,81.32
2019-03-05T17:48:10.427Z,81.63
2019-03-05T17:50:40.182Z,81.64
2019-03-05T17:53:09.653Z,81.98
2019-03-05T17:55:39.086Z,82.10
2019-03-05T17:58:09.013Z,82.28
2019-03-05T18:00:40.099Z,82.11
2019-03-05T18:03:09.859Z,82.11
2019-03-05T18:05:39.438Z,82.09
2019-03-05T18:08:09.255Z,82.03
2019-03-05T18:10:39.015Z,81.67
2019-03-05T18:13:08.449Z,81.67
2019-03-05T18:15:38.323Z,81.59
2019-03-05T18:18:07.787Z,81.72
2019-03-05T18:20:37.531Z,81.62
2019-03-05T18:23:07.056Z,81.89
2019-03-05T18:25:36.587Z,82.53
2019-03-05T18:28:06.041Z,83.38
2019-03-05T18:30:35.527Z,83.77
2019-03-05T18:33:04.962Z,83.62
2019-03-05T18:35:34.444Z,83.47
2019-03-05T18:38:03.912Z,83.35
2019-03-05T18:40:33.428Z,83.56
2019-03-05T18:43:03.410Z,83.85
2019-03-05T18:45:35.469Z,83.77
2019-03-05T18:48:05.309Z,83.61
2019-03-05T18:50:34.723Z,83.37
2019-03-05T18:53:05.404Z,82.98
2019-03-05T18:55:34.860Z,82.94
2019-03-05T18:58:04.299Z,82.82
2019-03-05T19:00:34.701Z,82.86
2019-03-05T19:03:11.851Z,82.60
2019-03-05T19:05:41.381Z,82.45
2019-03-05T19:08:10.863Z,81.13
2019-03-05T19:10:40.871Z,80.88
2019-03-05T19:13:10.318Z,81.42
2019-03-05T19:15:39.985Z,81.38
2019-03-05T19:18:09.488Z,81.58
2019-03-05T19:20:38.965Z,81.80
2019-03-05T19:23:08.420Z,81.72
2019-03-05T19:25:45.960Z,81.75
2019-03-05T19:28:15.708Z,82.15
2019-03-05T19:30:52.551Z,82.22
2019-03-05T19:33:22.290Z,82.57
2019-03-05T19:35:51.744Z,83.02
2019-03-05T19:38:21.456Z,83.00
2019-03-05T19:40:50.986Z,83.16
2019-03-05T19:43:20.425Z,83.34
2019-03-05T19:45:49.867Z,82.94
2019-03-05T19:48:19.739Z,82.80
2019-03-05T19:50:49.475Z,83.01
2019-03-05T19:53:18.924Z,83.18
2019-03-05T19:55:48.402Z,82.76
2019-03-05T19:58:17.852Z,82.93
2019-03-05T20:00:51.132Z,82.91
2019-03-05T20:03:20.578Z,82.60
2019-03-05T20:05:50.041Z,82.69
2019-03-05T20:08:19.499Z,82.32
2019-03-05T20:10:48.946Z,82.88
2019-03-05T20:13:18.780Z,83.28
2019-03-05T20:15:48.243Z,82.85
2019-03-05T20:18:17.719Z,82.84
2019-03-05T20:20:47.170Z,82.58
2019-03-05T20:23:16.605Z,82.86
2019-03-05T20:25:46.061Z,82.58
2019-03-05T20:28:15.525Z,82.66
2019-03-05T20:30:45.102Z,82.52
2019-03-05T20:33:14.828Z,82.33
2019-03-05T20:35:44.421Z,82.51
2019-03-05T20:38:13.867Z,82.46
2019-03-05T20:40:43.576Z,82.79
2019-03-05T20:43:13.044Z,82.61
2019-03-05T20:45:48.401Z,82.47
2019-03-05T20:48:18.147Z,82.57
2019-03-05T20:50:47.582Z,82.75
2019-03-05T20:53:17.027Z,82.70
2019-03-05T20:55:46.508Z,82.91
2019-03-05T20:58:16.275Z,82.57
2019-03-05T21:00:45.855Z,82.71
2019-03-05T21:03:15.285Z,82.92
2019-03-05T21:05:48.465Z,82.68
2019-03-05T21:08:17.913Z,82.72
2019-03-05T21:10:48.292Z,83.24
2019-03-05T21:13:17.737Z,82.65
2019-03-05T21:15:47.226Z,82.87
2019-03-05T21:18:19.533Z,82.70
2019-03-05T21:20:49.270Z,82.88
2019-03-05T21:23:19.930Z,83.24
2019-03-05T21:25:49.327Z,83.50
2019-03-05T21:28:18.767Z,83.50
2019-03-05T21:30:48.250Z,83.14
2019-03-05T21:33:23.783Z,83.56
2019-03-05T21:35:53.618Z,83.39
2019-03-05T21:38:25.284Z,83.47
2019-03-05T21:40:54.734Z,83.75
2019-03-05T21:43:25.198Z,83.36
2019-03-05T21:46:10.864Z,83.23
2019-03-05T21:48:40.694Z,83.05
2019-03-05T21:51:10.140Z,82.60
2019-03-05T21:53:39.755Z,82.82
2019-03-05T21:56:09.221Z,82.98
2019-03-05T21:58:38.661Z,83.00
2019-03-05T22:01:08.102Z,82.83
2019-03-05T22:03:37.545Z,82.67
2019-03-05T22:06:07.079Z,82.42
2019-03-05T22:08:36.529Z,82.80
2019-03-05T22:11:05.974Z,83.07
2019-03-05T22:13:35.450Z,82.90
2019-03-05T22:16:04.966Z,82.88
2019-03-05T22:18:34.412Z,83.09
2019-03-05T22:21:03.865Z,83.70
2019-03-05T22:23:33.312Z,83.64
2019-03-05T22:26:02.756Z,83.48
2019-03-05T22:28:32.212Z,83.49
2019-03-05T22:31:01.653Z,83.28
2019-03-05T22:33:31.117Z,83.48
2019-03-05T22:36:00.581Z,83.75
2019-03-05T22:38:30.020Z,83.15
2019-03-05T22:40:59.475Z,83.11
2019-03-05T22:43:28.934Z,82.58
2019-03-05T22:45:58.388Z,82.26
2019-03-05T22:48:28.143Z,80.98
2019-03-05T22:50:57.842Z,80.36
2019-03-05T22:53:27.559Z,80.73
2019-03-05T22:55:57.009Z,80.59
2019-03-05T22:58:26.449Z,80.73
2019-03-05T23:01:02.733Z,80.27
2019-03-05T23:03:32.660Z,79.93
2019-03-05T23:06:05.117Z,79.28
2019-03-05T23:08:34.556Z,79.36
2019-03-05T23:11:04.310Z,79.28
2019-03-05T23:13:34.249Z,79.19
2019-03-05T23:16:03.784Z,79.34
2019-03-05T23:18:33.220Z,79.13
2019-03-05T23:21:02.650Z,78.99
2019-03-05T23:23:32.092Z,79.03
2019-03-05T23:26:01.601Z,79.30
2019-03-05T23:28:31.061Z,79.40
2019-03-05T23:31:00.502Z,78.95
2019-03-05T23:33:29.956Z,79.43
2019-03-05T23:35:59.623Z,79.52
2019-03-05T23:38:29.102Z,78.92
2019-03-05T23:40:58.560Z,79.02
2019-03-05T23:43:28.004Z,78.79
2019-03-05T23:45:57.439Z,78.83
2019-03-05T23:48:26.880Z,78.77
2019-03-05T23:50:56.323Z,78.90
2019-03-05T23:53:25.848Z,78.87
2019-03-05T23:55:55.298Z,79.09
2019-03-05T23:58:24.742Z,78.54
